Frisia Aller — A8SB5 — position and weather

sailwx.info

Track history (hours):
 
Tides and Currents Weather Stations Pressure Air Temp Water Temp Dewpoint Dewpoint Depression Visibility Wind Speed Wind Dir Waves Ship Positions

Frisia Aller

Last reported at 2018-Jul-19 01:53 UTC. Time now 2018-Jul-19 11:52 UTC.
Position S 06°50' E 112°47'.

Length 148 m; draft 8.4 m.

Type: Ship. MMSI: 636091729.

Date/timePositionNaut miles runAvg speedWind from/ knotsBaromVisibWave heightAir tempDewpointWater temp
2018-Jul-19 01:53S 06°50' E 112°47'  
2018-Jul-14 19:10N 01°04' E 104°55'313.7
2018-Jul-14 18:55N 01°07' E 104°53'1113.9
2018-Jul-14 18:07N 01°14' E 104°45'214.1
2018-Jul-14 17:57N 01°15' E 104°43'714.3
2018-Jul-14 17:28N 01°20' E 104°38'813.9
2018-Jul-14 16:54N 01°22' E 104°30'614.8
2018-Jul-14 16:29N 01°21' E 104°24'713.2
2018-Jul-14 15:59N 01°17' E 104°19'714.7
2018-Jul-14 15:30N 01°16' E 104°12'713.7
2018-Jul-14 15:00N 01°15' E 104°05'1413.6
2018-Jul-14 13:59N 01°12' E 103°52'4 8.9
2018-Jul-14 13:30N 01°13' E 103°48'5 9.9
2018-Jul-14 13:01N 01°17' E 103°45'1 1.6
2018-Jul-14 12:26N 01°17' E 103°46'0 0.0
2018-Jul-14 11:58N 01°17' E 103°46'0 0.0
2018-Jul-14 11:30N 01°17' E 103°46'0 0.0
2018-Jul-14 11:00N 01°17' E 103°46'0 0.0
2018-Jul-14 10:30N 01°17' E 103°46'0 0.0
2018-Jul-14 09:59N 01°17' E 103°46'0 0.0
2018-Jul-14 09:29N 01°17' E 103°46'0 0.0
2018-Jul-14 08:59N 01°17' E 103°46'0 0.0
2018-Jul-14 08:28N 01°17' E 103°46'0 0.0
2018-Jul-14 07:59N 01°17' E 103°46'0 0.0
2018-Jul-14 07:29N 01°17' E 103°46'0 0.0
2018-Jul-14 06:59N 01°17' E 103°46'0 0.0
2018-Jul-14 06:31N 01°17' E 103°46'0 0.0
2018-Jul-14 05:58N 01°17' E 103°46'0 0.0
2018-Jul-14 05:30N 01°17' E 103°46'0 0.0
2018-Jul-14 05:00N 01°17' E 103°46'0 0.0
2018-Jul-14 04:30N 01°17' E 103°46'0 0.0
2018-Jul-14 04:00N 01°17' E 103°46'0 0.0
2018-Jul-14 03:31N 01°17' E 103°46'0 0.0
2018-Jul-14 02:59N 01°17' E 103°46'0 0.0
2018-Jul-14 02:30N 01°17' E 103°46'0 0.8
2018-Jul-14 02:00N 01°17' E 103°46'1 2.1
2018-Jul-14 01:30N 01°17' E 103°45'0 0.4
2018-Jul-14 01:00N 01°17' E 103°44'3 6.1
2018-Jul-14 00:30N 01°15' E 103°47'2 3.7
2018-Jul-13 23:59N 01°14' E 103°49'0 0.1
2018-Jul-13 23:27N 01°14' E 103°49'0 0.0
2018-Jul-13 22:54N 01°14' E 103°49'0 0.2
2018-Jul-13 22:29N 01°14' E 103°49'0 0.0
2018-Jul-13 22:00N 01°14' E 103°49'0 0.1
2018-Jul-13 21:29N 01°14' E 103°49'0 0.0
2018-Jul-13 20:57N 01°14' E 103°49'0 0.0
2018-Jul-13 20:30N 01°14' E 103°49'0 0.0
2018-Jul-13 20:00N 01°14' E 103°49'0 0.0
2018-Jul-13 19:30N 01°14' E 103°49'0 0.0
2018-Jul-13 18:57N 01°14' E 103°49'0 0.0
2018-Jul-13 18:26N 01°14' E 103°49'0 0.0
2018-Jul-13 17:59N 01°14' E 103°49'0 0.1
2018-Jul-13 17:30N 01°14' E 103°49'0 0.1
2018-Jul-13 16:54N 01°14' E 103°49'0 0.0
2018-Jul-13 16:30N 01°14' E 103°49'0 0.0
2018-Jul-13 15:59N 01°14' E 103°49'0 0.1
2018-Jul-13 15:29N 01°14' E 103°49'0 0.2
2018-Jul-13 14:59N 01°15' E 103°49'0 0.1
2018-Jul-13 14:00N 01°15' E 103°48'0 0.0
2018-Jul-13 13:30N 01°15' E 103°48'0 0.1
2018-Jul-13 12:58N 01°15' E 103°48'0 0.1
2018-Jul-13 12:22N 01°15' E 103°48'0 0.0
2018-Jul-13 12:00N 01°15' E 103°48'0 0.1
2018-Jul-13 11:30N 01°15' E 103°48'0 0.0
2018-Jul-13 11:00N 01°15' E 103°48'0 0.1
2018-Jul-13 10:28N 01°15' E 103°48'0 0.1
2018-Jul-13 09:59N 01°15' E 103°48'0 0.0
2018-Jul-13 09:30N 01°15' E 103°48'0 0.2
2018-Jul-13 09:00N 01°15' E 103°48'0 0.1
2018-Jul-13 08:29N 01°15' E 103°48'0 0.0
2018-Jul-13 07:58N 01°15' E 103°48'0 0.1
2018-Jul-13 07:28N 01°15' E 103°49'0 0.0
2018-Jul-13 06:58N 01°15' E 103°49'0 0.0
2018-Jul-13 06:30N 01°15' E 103°49'0 0.0
2018-Jul-13 06:00N 01°15' E 103°49'0 0.1
2018-Jul-13 05:31N 01°15' E 103°49'0 0.0
2018-Jul-13 04:58N 01°15' E 103°49'0 0.0
2018-Jul-13 04:28N 01°15' E 103°49'0 0.1
2018-Jul-13 03:58N 01°15' E 103°48'0 0.0
2018-Jul-13 03:29N 01°15' E 103°48'0 0.1
2018-Jul-13 02:59N 01°14' E 103°48'0 0.2
2018-Jul-13 02:30N 01°14' E 103°48'0 0.2
2018-Jul-13 01:59N 01°14' E 103°48'0 0.0
2018-Jul-13 01:30N 01°14' E 103°48'0 0.1
2018-Jul-13 00:57N 01°14' E 103°49'0 0.1
2018-Jul-13 00:23N 01°14' E 103°49'0 0.1
2018-Jul-13 00:00N 01°14' E 103°49'0 0.1
2018-Jul-12 23:25N 01°14' E 103°49'0 0.0
2018-Jul-12 22:57N 01°14' E 103°49'0 0.0
2018-Jul-12 22:30N 01°14' E 103°49'0 0.0
2018-Jul-12 22:00N 01°14' E 103°49'0 0.1
2018-Jul-12 21:26N 01°14' E 103°49'0 0.1
2018-Jul-12 20:57N 01°14' E 103°49'0 0.1
2018-Jul-12 20:30N 01°14' E 103°49'0 0.0
2018-Jul-12 19:59N 01°14' E 103°49'0 0.0
2018-Jul-12 19:30N 01°14' E 103°49'0 0.0
2018-Jul-12 18:55N 01°14' E 103°49'0 0.1
2018-Jul-12 18:30N 01°14' E 103°49'0 0.0
2018-Jul-12 17:57N 01°14' E 103°49'0 0.0
2018-Jul-12 17:29N 01°14' E 103°49'0 0.3
2018-Jul-12 17:00N 01°14' E 103°49'2 3.5
2018-Jul-12 16:30N 01°13' E 103°49'5 9.4
2018-Jul-12 16:00N 01°15' E 103°45'713.0
2018-Jul-12 15:28N 01°12' E 103°38'4 8.1
2018-Jul-12 15:00N 01°13' E 103°34'510.3
2018-Jul-12 14:30N 01°17' E 103°33'5 9.3
2018-Jul-12 14:00N 01°22' E 103°32'0 0.3
2018-Jul-12 13:28N 01°22' E 103°33'0 0.0
2018-Jul-12 12:58N 01°22' E 103°33'0 0.0
2018-Jul-12 12:19N 01°22' E 103°33'0 0.0
2018-Jul-12 11:58N 01°22' E 103°33'0 0.0
2018-Jul-12 11:26N 01°22' E 103°33'0 0.0
2018-Jul-12 10:58N 01°22' E 103°33'0 0.0
2018-Jul-12 10:30N 01°22' E 103°33'0 0.0
2018-Jul-12 09:59N 01°22' E 103°33'1521.4
2018-Jul-12 09:18N 01°16' E 103°46'1533.1
2018-Jul-12 08:51N 01°22' E 103°33'0 0.0
2018-Jul-12 08:11N 01°22' E 103°33'0 0.0
2018-Jul-12 07:46N 01°22' E 103°33'0 0.0
2018-Jul-12 07:20N 01°22' E 103°33'0 1.1
2018-Jul-12 06:53N 01°22' E 103°33'2 6.7
2018-Jul-12 06:30N 01°19' E 103°33'4 8.6
2018-Jul-12 06:00N 01°15' E 103°33'0 0.2
2018-Jul-12 05:27N 01°15' E 103°33'0 0.1
2018-Jul-12 05:00N 01°15' E 103°33'0 0.1
2018-Jul-12 04:30N 01°15' E 103°33'0 0.0
2018-Jul-12 04:01N 01°15' E 103°33'0 0.0
2018-Jul-12 03:29N 01°15' E 103°33'0 0.1
2018-Jul-12 02:58N 01°15' E 103°33'0 1.1
2018-Jul-12 02:30N 01°15' E 103°33'4 8.6
2018-Jul-12 01:59N 01°12' E 103°37'612.0
2018-Jul-12 01:30N 01°09' E 103°42'612.1
2018-Jul-12 01:01N 01°10' E 103°48'714.4
2018-Jul-12 00:30N 01°13' E 103°54'713.4
2018-Jul-11 23:59N 01°15' E 104°01'613.0
2018-Jul-11 23:30N 01°16' E 104°07'714.4
2018-Jul-11 23:00N 01°17' E 104°15'714.1
2018-Jul-11 22:30N 01°20' E 104°21'814.6
2018-Jul-11 21:58N 01°25' E 104°27'613.0
2018-Jul-11 21:30N 01°28' E 104°32'914.4
2018-Jul-11 20:52N 01°28' E 104°41'1314.4
2018-Jul-11 19:59N 01°28' E 104°54'1213.8
2018-Jul-11 19:09N 01°24' E 105°05'315.2
2018-Jul-11 18:57N 01°22' E 105°07'  
Track history (hours):
 
Tides and Currents Weather Stations Pressure Air Temp Water Temp Dewpoint Dewpoint Depression Visibility Wind Speed Wind Dir Waves Ship Positions

Frisia Aller

Last reported at 2018-Jul-19 01:53 UTC. Time now 2018-Jul-19 11:52 UTC.
Position S 06°50' E 112°47'.

Length 148 m; draft 8.4 m.

Type: Ship. MMSI: 636091729.

Date/timePositionNaut miles runAvg speedWind from/ knotsBaromVisibWave heightAir tempDewpointWater temp
2018-Jul-19 01:53S 06°50' E 112°47'  
2018-Jul-14 19:10N 01°04' E 104°55'313.7
2018-Jul-14 18:55N 01°07' E 104°53'1113.9
2018-Jul-14 18:07N 01°14' E 104°45'214.1
2018-Jul-14 17:57N 01°15' E 104°43'714.3
2018-Jul-14 17:28N 01°20' E 104°38'813.9
2018-Jul-14 16:54N 01°22' E 104°30'614.8
2018-Jul-14 16:29N 01°21' E 104°24'713.2
2018-Jul-14 15:59N 01°17' E 104°19'714.7
2018-Jul-14 15:30N 01°16' E 104°12'713.7
2018-Jul-14 15:00N 01°15' E 104°05'1413.6
2018-Jul-14 13:59N 01°12' E 103°52'4 8.9
2018-Jul-14 13:30N 01°13' E 103°48'5 9.9
2018-Jul-14 13:01N 01°17' E 103°45'1 1.6
2018-Jul-14 12:26N 01°17' E 103°46'0 0.0
2018-Jul-14 11:58N 01°17' E 103°46'0 0.0
2018-Jul-14 11:30N 01°17' E 103°46'0 0.0
2018-Jul-14 11:00N 01°17' E 103°46'0 0.0
2018-Jul-14 10:30N 01°17' E 103°46'0 0.0
2018-Jul-14 09:59N 01°17' E 103°46'0 0.0
2018-Jul-14 09:29N 01°17' E 103°46'0 0.0
2018-Jul-14 08:59N 01°17' E 103°46'0 0.0
2018-Jul-14 08:28N 01°17' E 103°46'0 0.0
2018-Jul-14 07:59N 01°17' E 103°46'0 0.0
2018-Jul-14 07:29N 01°17' E 103°46'0 0.0
2018-Jul-14 06:59N 01°17' E 103°46'0 0.0
2018-Jul-14 06:31N 01°17' E 103°46'0 0.0
2018-Jul-14 05:58N 01°17' E 103°46'0 0.0
2018-Jul-14 05:30N 01°17' E 103°46'0 0.0
2018-Jul-14 05:00N 01°17' E 103°46'0 0.0
2018-Jul-14 04:30N 01°17' E 103°46'0 0.0
2018-Jul-14 04:00N 01°17' E 103°46'0 0.0
2018-Jul-14 03:31N 01°17' E 103°46'0 0.0
2018-Jul-14 02:59N 01°17' E 103°46'0 0.0
2018-Jul-14 02:30N 01°17' E 103°46'0 0.8
2018-Jul-14 02:00N 01°17' E 103°46'1 2.1
2018-Jul-14 01:30N 01°17' E 103°45'0 0.4
2018-Jul-14 01:00N 01°17' E 103°44'3 6.1
2018-Jul-14 00:30N 01°15' E 103°47'2 3.7
2018-Jul-13 23:59N 01°14' E 103°49'0 0.1
2018-Jul-13 23:27N 01°14' E 103°49'0 0.0
2018-Jul-13 22:54N 01°14' E 103°49'0 0.2
2018-Jul-13 22:29N 01°14' E 103°49'0 0.0
2018-Jul-13 22:00N 01°14' E 103°49'0 0.1
2018-Jul-13 21:29N 01°14' E 103°49'0 0.0
2018-Jul-13 20:57N 01°14' E 103°49'0 0.0
2018-Jul-13 20:30N 01°14' E 103°49'0 0.0
2018-Jul-13 20:00N 01°14' E 103°49'0 0.0
2018-Jul-13 19:30N 01°14' E 103°49'0 0.0
2018-Jul-13 18:57N 01°14' E 103°49'0 0.0
2018-Jul-13 18:26N 01°14' E 103°49'0 0.0
2018-Jul-13 17:59N 01°14' E 103°49'0 0.1
2018-Jul-13 17:30N 01°14' E 103°49'0 0.1
2018-Jul-13 16:54N 01°14' E 103°49'0 0.0
2018-Jul-13 16:30N 01°14' E 103°49'0 0.0
2018-Jul-13 15:59N 01°14' E 103°49'0 0.1
2018-Jul-13 15:29N 01°14' E 103°49'0 0.2
2018-Jul-13 14:59N 01°15' E 103°49'0 0.1
2018-Jul-13 14:00N 01°15' E 103°48'0 0.0
2018-Jul-13 13:30N 01°15' E 103°48'0 0.1
2018-Jul-13 12:58N 01°15' E 103°48'0 0.1
2018-Jul-13 12:22N 01°15' E 103°48'0 0.0
2018-Jul-13 12:00N 01°15' E 103°48'0 0.1
2018-Jul-13 11:30N 01°15' E 103°48'0 0.0
2018-Jul-13 11:00N 01°15' E 103°48'0 0.1
2018-Jul-13 10:28N 01°15' E 103°48'0 0.1
2018-Jul-13 09:59N 01°15' E 103°48'0 0.0
2018-Jul-13 09:30N 01°15' E 103°48'0 0.2
2018-Jul-13 09:00N 01°15' E 103°48'0 0.1
2018-Jul-13 08:29N 01°15' E 103°48'0 0.0
2018-Jul-13 07:58N 01°15' E 103°48'0 0.1
2018-Jul-13 07:28N 01°15' E 103°49'0 0.0
2018-Jul-13 06:58N 01°15' E 103°49'0 0.0
2018-Jul-13 06:30N 01°15' E 103°49'0 0.0
2018-Jul-13 06:00N 01°15' E 103°49'0 0.1
2018-Jul-13 05:31N 01°15' E 103°49'0 0.0
2018-Jul-13 04:58N 01°15' E 103°49'0 0.0
2018-Jul-13 04:28N 01°15' E 103°49'0 0.1
2018-Jul-13 03:58N 01°15' E 103°48'0 0.0
2018-Jul-13 03:29N 01°15' E 103°48'0 0.1
2018-Jul-13 02:59N 01°14' E 103°48'0 0.2
2018-Jul-13 02:30N 01°14' E 103°48'0 0.2
2018-Jul-13 01:59N 01°14' E 103°48'0 0.0
2018-Jul-13 01:30N 01°14' E 103°48'0 0.1
2018-Jul-13 00:57N 01°14' E 103°49'0 0.1
2018-Jul-13 00:23N 01°14' E 103°49'0 0.1
2018-Jul-13 00:00N 01°14' E 103°49'0 0.1
2018-Jul-12 23:25N 01°14' E 103°49'0 0.0
2018-Jul-12 22:57N 01°14' E 103°49'0 0.0
2018-Jul-12 22:30N 01°14' E 103°49'0 0.0
2018-Jul-12 22:00N 01°14' E 103°49'0 0.1
2018-Jul-12 21:26N 01°14' E 103°49'0 0.1
2018-Jul-12 20:57N 01°14' E 103°49'0 0.1
2018-Jul-12 20:30N 01°14' E 103°49'0 0.0
2018-Jul-12 19:59N 01°14' E 103°49'0 0.0
2018-Jul-12 19:30N 01°14' E 103°49'0 0.0
2018-Jul-12 18:55N 01°14' E 103°49'0 0.1
2018-Jul-12 18:30N 01°14' E 103°49'0 0.0
2018-Jul-12 17:57N 01°14' E 103°49'0 0.0
2018-Jul-12 17:29N 01°14' E 103°49'0 0.3
2018-Jul-12 17:00N 01°14' E 103°49'2 3.5
2018-Jul-12 16:30N 01°13' E 103°49'5 9.4
2018-Jul-12 16:00N 01°15' E 103°45'713.0
2018-Jul-12 15:28N 01°12' E 103°38'4 8.1
2018-Jul-12 15:00N 01°13' E 103°34'510.3
2018-Jul-12 14:30N 01°17' E 103°33'5 9.3
2018-Jul-12 14:00N 01°22' E 103°32'0 0.3
2018-Jul-12 13:28N 01°22' E 103°33'0 0.0
2018-Jul-12 12:58N 01°22' E 103°33'0 0.0
2018-Jul-12 12:19N 01°22' E 103°33'0 0.0
2018-Jul-12 11:58N 01°22' E 103°33'0 0.0
2018-Jul-12 11:26N 01°22' E 103°33'0 0.0
2018-Jul-12 10:58N 01°22' E 103°33'0 0.0
2018-Jul-12 10:30N 01°22' E 103°33'0 0.0
2018-Jul-12 09:59N 01°22' E 103°33'1521.4
2018-Jul-12 09:18N 01°16' E 103°46'1533.1
2018-Jul-12 08:51N 01°22' E 103°33'0 0.0
2018-Jul-12 08:11N 01°22' E 103°33'0 0.0
2018-Jul-12 07:46N 01°22' E 103°33'0 0.0
2018-Jul-12 07:20N 01°22' E 103°33'0 1.1
2018-Jul-12 06:53N 01°22' E 103°33'2 6.7
2018-Jul-12 06:30N 01°19' E 103°33'4 8.6
2018-Jul-12 06:00N 01°15' E 103°33'0 0.2
2018-Jul-12 05:27N 01°15' E 103°33'0 0.1
2018-Jul-12 05:00N 01°15' E 103°33'0 0.1
2018-Jul-12 04:30N 01°15' E 103°33'0 0.0
2018-Jul-12 04:01N 01°15' E 103°33'0 0.0
2018-Jul-12 03:29N 01°15' E 103°33'0 0.1
2018-Jul-12 02:58N 01°15' E 103°33'0 1.1
2018-Jul-12 02:30N 01°15' E 103°33'4 8.6
2018-Jul-12 01:59N 01°12' E 103°37'612.0
2018-Jul-12 01:30N 01°09' E 103°42'612.1
2018-Jul-12 01:01N 01°10' E 103°48'714.4
2018-Jul-12 00:30N 01°13' E 103°54'713.4
2018-Jul-11 23:59N 01°15' E 104°01'613.0
2018-Jul-11 23:30N 01°16' E 104°07'714.4
2018-Jul-11 23:00N 01°17' E 104°15'714.1
2018-Jul-11 22:30N 01°20' E 104°21'814.6
2018-Jul-11 21:58N 01°25' E 104°27'613.0
2018-Jul-11 21:30N 01°28' E 104°32'914.4
2018-Jul-11 20:52N 01°28' E 104°41'1314.4
2018-Jul-11 19:59N 01°28' E 104°54'1213.8
2018-Jul-11 19:09N 01°24' E 105°05'315.2
2018-Jul-11 18:57N 01°22' E 105°07'  

Dump ship's entire track history